Terminal Aerodrome Forecast
Issued by NWS

Home | Current Version | Previous Version | Text Only | Print | Product List | Glossary On
Versions: 1 2 3 4 5 6 7 8 9 10 11 12 13 14 15 16 17
000
FTUS43 KTOP 151729
TAFMHK
TAF
KMHK 151729Z 1518/1618 08006KT 3SM -FZRA BR OVC006
      TEMPO 1518/1522 2SM -FZRA OVC004
     FM160200 08006KT 2SM -RA BR OVC003=

USA.gov is the U.S. government's official web portal to all federal, state and local government web resources and services.